Time;durP1;ratioP1;P1;durP2;ratioP2;P2;SDS_P1;SDS_P2;PMS_P1;PMS_P2;Temp;Humidity;BMP_temperature;BMP_pressure;BME280_temperature;BME280_humidity;BME280_pressure;Samples;Min_cycle;Max_cycle;Signal;HPM_P1;HPM_P2
2023/05/05 00:00:52;;;;;;;7.30;4.00;;;;;;;15.74;68.01;101161.38;5028127;28;20893;-74
2023/05/05 00:03:19;;;;;;;15.60;4.57;;;;;;;15.66;68.46;101148.38;5027126;28;20049;-74
2023/05/05 00:05:46;;;;;;;8.13;3.30;;;;;;;15.61;69.05;101145.50;5022304;28;20037;-74
2023/05/05 00:08:11;;;;;;;6.18;3.47;;;;;;;15.57;69.10;101150.25;5027974;28;20051;-74
2023/05/05 00:10:37;;;;;;;9.50;4.05;;;;;;;15.54;69.56;101140.19;5028297;28;20037;-75
2023/05/05 00:13:02;;;;;;;7.25;3.60;;;;;;;15.56;69.28;101135.59;5027834;28;20042;-74
2023/05/05 00:15:28;;;;;;;5.15;3.20;;;;;;;15.59;69.55;101137.03;5027951;28;20046;-75
2023/05/05 00:17:53;;;;;;;6.70;3.50;;;;;;;15.58;70.44;101145.88;5043713;28;20041;-74
2023/05/05 00:20:19;;;;;;;6.82;3.70;;;;;;;15.56;70.87;101145.25;5043918;28;20044;-74
2023/05/05 00:22:44;;;;;;;6.35;3.50;;;;;;;15.54;71.66;101150.66;5024832;28;20030;-74
2023/05/05 00:25:10;;;;;;;5.22;3.70;;;;;;;15.52;72.02;101149.19;5038624;28;20054;-74
2023/05/05 00:27:36;;;;;;;6.80;3.78;;;;;;;15.52;72.51;101141.34;5024423;28;20029;-74
2023/05/05 00:30:02;;;;;;;6.80;3.80;;;;;;;15.47;72.91;101139.28;5021909;28;20051;-74
2023/05/05 00:32:27;;;;;;;7.05;3.33;;;;;;;15.45;73.39;101140.47;5026193;28;20391;-74
2023/05/05 00:34:53;;;;;;;6.97;3.55;;;;;;;15.42;73.62;101140.81;5021252;28;20053;-74
2023/05/05 00:37:18;;;;;;;6.60;3.55;;;;;;;15.40;74.17;101138.38;5024783;28;20502;-74
2023/05/05 00:39:44;;;;;;;6.47;3.67;;;;;;;15.38;74.56;101138.53;5024260;28;20049;-74
2023/05/05 00:42:09;;;;;;;5.68;3.80;;;;;;;15.35;75.18;101144.16;5024343;28;20644;-74
2023/05/05 00:44:40;;;;;;;6.18;3.63;;;;;;;15.33;75.63;101138.28;5022921;28;20072;-74
2023/05/05 00:47:08;;;;;;;9.30;5.05;;;;;;;15.31;75.99;101147.28;5022328;28;20458;-74
2023/05/05 00:49:34;;;;;;;7.18;3.85;;;;;;;15.29;76.47;101139.63;5020238;28;20047;-75
2023/05/05 00:52:01;;;;;;;6.32;4.18;;;;;;;15.28;76.91;101148.47;5026246;28;20071;-75
2023/05/05 00:54:26;;;;;;;7.60;4.43;;;;;;;15.26;77.29;101154.88;5042921;28;20451;-74
2023/05/05 00:56:52;;;;;;;7.78;4.15;;;;;;;15.23;78.04;101153.41;5042892;28;20029;-74
2023/05/05 00:59:18;;;;;;;5.93;4.20;;;;;;;15.19;78.42;101157.34;5020096;28;20561;-74
2023/05/05 01:01:44;;;;;;;7.40;3.97;;;;;;;15.18;78.85;101146.09;5026498;28;20080;-74
2023/05/05 01:04:10;;;;;;;11.30;5.13;;;;;;;15.21;79.83;101157.19;5025651;28;20044;-74
2023/05/05 01:07:14;;;;;;;5.47;4.25;;;;;;;15.17;80.27;101154.91;5043260;28;20030;-74
2023/05/05 01:09:56;;;;;;;7.10;4.35;;;;;;;15.13;80.31;101156.28;5041422;28;20049;-74
2023/05/05 01:12:33;;;;;;;6.07;4.63;;;;;;;15.11;80.67;101141.78;5025025;28;20047;-75
2023/05/05 01:15:01;;;;;;;6.28;3.88;;;;;;;15.07;81.20;101148.31;5025499;28;20046;-74
2023/05/05 01:17:38;;;;;;;5.90;4.40;;;;;;;15.02;81.35;101143.63;5041200;28;20602;-74
2023/05/05 01:20:11;;;;;;;8.48;5.22;;;;;;;15.01;81.51;101144.63;5021499;28;20768;-74
2023/05/05 01:22:44;;;;;;;8.35;4.72;;;;;;;14.97;82.17;101159.84;5025909;28;20030;-74
2023/05/05 01:25:57;;;;;;;6.75;4.80;;;;;;;14.93;82.32;101153.31;5038307;28;20128;-74
2023/05/05 01:29:01;;;;;;;6.32;4.63;;;;;;;14.86;83.19;101156.81;5015623;28;20049;-74
2023/05/05 01:31:36;;;;;;;7.18;4.47;;;;;;;14.77;84.06;101156.09;5023415;28;20029;-74
2023/05/05 01:34:06;;;;;;;8.63;5.13;;;;;;;14.72;84.52;101161.00;5027046;28;20480;-73
2023/05/05 01:36:36;;;;;;;7.68;4.63;;;;;;;14.67;84.66;101155.50;5042516;28;20403;-74
2023/05/05 01:39:03;;;;;;;5.78;4.57;;;;;;;14.64;84.90;101163.69;5039295;28;20065;-74
2023/05/05 01:41:46;;;;;;;8.13;4.60;;;;;;;14.62;85.19;101163.03;5042852;28;20490;-74
2023/05/05 01:44:15;;;;;;;7.72;5.00;;;;;;;14.60;85.66;101163.22;5025671;28;20096;-74
2023/05/05 01:46:40;;;;;;;7.53;5.20;;;;;;;14.58;86.06;101165.19;5035296;28;20030;-74
2023/05/05 01:49:08;;;;;;;9.43;5.03;;;;;;;14.49;86.93;101169.63;5046377;28;20409;-75
2023/05/05 01:51:35;;;;;;;7.72;4.97;;;;;;;14.43;87.65;101167.69;5042404;28;20040;-74
2023/05/05 01:54:06;;;;;;;7.85;5.65;;;;;;;14.49;88.19;101181.84;5022450;28;20176;-74
2023/05/05 01:56:36;;;;;;;11.50;6.10;;;;;;;14.50;89.38;101179.06;5008122;28;20488;-75
2023/05/05 01:59:03;;;;;;;10.48;7.20;;;;;;;14.56;90.34;101175.78;5025695;28;20060;-74
2023/05/05 02:01:29;;;;;;;11.88;7.80;;;;;;;14.62;91.02;101178.69;5024651;28;20514;-74
2023/05/05 02:03:56;;;;;;;13.93;8.25;;;;;;;14.70;91.34;101184.66;5008412;28;20065;-75
2023/05/05 02:06:23;;;;;;;14.18;8.20;;;;;;;14.70;91.26;101187.28;5026708;28;20037;-74
2023/05/05 02:08:50;;;;;;;15.25;8.60;;;;;;;14.71;91.18;101191.53;5025529;28;20511;-74
2023/05/05 02:11:16;;;;;;;13.85;9.40;;;;;;;14.80;91.61;101194.88;5041601;28;20033;-74
2023/05/05 02:13:43;;;;;;;14.90;8.93;;;;;;;14.79;91.58;101201.91;5040494;28;20395;-74
2023/05/05 02:16:15;;;;;;;15.75;10.07;;;;;;;14.84;91.42;101201.38;5025939;28;20112;-74
2023/05/05 02:18:41;;;;;;;14.63;9.18;;;;;;;14.85;91.91;101197.78;5021786;28;20551;-74
2023/05/05 02:21:07;;;;;;;19.92;8.90;;;;;;;14.91;91.77;101204.91;5024890;28;20951;-74
2023/05/05 02:23:32;;;;;;;14.00;8.50;;;;;;;14.88;91.77;101200.06;5037582;28;20057;-74
2023/05/05 02:26:04;;;;;;;19.08;10.02;;;;;;;14.96;91.89;101205.22;5022565;28;20053;-74
2023/05/05 02:28:57;;;;;;;14.85;10.23;;;;;;;15.04;91.74;101206.13;5023496;28;20044;-74
2023/05/05 02:31:26;;;;;;;16.80;10.45;;;;;;;14.93;92.17;101199.53;5027138;28;20539;-74
2023/05/05 02:33:55;;;;;;;17.95;10.18;;;;;;;14.93;92.16;101205.56;5040187;28;20064;-75
2023/05/05 02:36:24;;;;;;;17.13;11.27;;;;;;;14.91;91.99;101207.53;5041521;28;20033;-74
2023/05/05 02:38:59;;;;;;;15.57;10.30;;;;;;;14.92;92.31;101203.13;5007357;28;20473;-74
2023/05/05 02:41:29;;;;;;;14.73;10.68;;;;;;;14.96;92.65;101201.78;5025534;28;20535;-74
2023/05/05 02:43:58;;;;;;;20.00;11.88;;;;;;;14.98;92.54;101202.44;5040194;28;20048;-74
2023/05/05 02:46:25;;;;;;;17.27;11.07;;;;;;;14.92;92.79;101209.16;5026406;28;20398;-74
2023/05/05 02:48:51;;;;;;;21.20;11.38;;;;;;;14.90;92.75;101205.09;5026821;28;20048;-74
2023/05/05 02:51:16;;;;;;;14.75;9.98;;;;;;;14.84;93.09;101205.78;5024997;28;20037;-74
2023/05/05 02:53:42;;;;;;;15.95;10.10;;;;;;;14.77;93.21;101205.69;5021718;28;20054;-74
2023/05/05 02:56:23;;;;;;;17.48;12.00;;;;;;;14.75;93.36;101198.03;5038589;28;20549;-74
2023/05/05 02:59:30;;;;;;;22.50;11.13;;;;;;;14.72;93.63;101211.41;5040981;28;20037;-74
2023/05/05 03:02:13;;;;;;;16.48;10.63;;;;;;;14.68;93.27;101204.13;5033555;28;20042;-74
2023/05/05 03:04:44;;;;;;;15.32;10.10;;;;;;;14.67;92.73;101207.69;5022062;28;20095;-74
2023/05/05 03:07:30;;;;;;;16.13;10.75;;;;;;;14.64;92.59;101205.44;5022062;28;20507;-74
2023/05/05 03:10:04;;;;;;;13.95;9.30;;;;;;;14.58;92.86;101205.16;5041160;28;20128;-74
2023/05/05 03:12:49;;;;;;;16.15;10.10;;;;;;;14.52;93.10;101205.81;5024663;28;20117;-74
2023/05/05 03:15:44;;;;;;;13.50;9.32;;;;;;;14.49;93.40;101206.13;5024235;28;20124;-74
2023/05/05 03:18:11;;;;;;;15.98;8.90;;;;;;;14.45;93.48;101209.25;5013154;28;20116;-74
2023/05/05 03:20:40;;;;;;;13.15;8.93;;;;;;;14.40;93.65;101205.38;5037698;28;20033;-74
2023/05/05 03:23:09;;;;;;;17.67;10.43;;;;;;;14.36;94.03;101200.66;5039014;28;20442;-74
2023/05/05 03:25:46;;;;;;;14.45;9.63;;;;;;;14.30;94.45;101203.97;5022433;28;20120;-74
2023/05/05 03:28:20;;;;;;;15.10;10.40;;;;;;;14.21;95.06;101201.38;5021134;28;20046;-74
2023/05/05 03:30:46;;;;;;;12.85;9.32;;;;;;;14.17;95.48;101199.28;5024312;28;20038;-74
2023/05/05 03:33:15;;;;;;;16.13;9.32;;;;;;;14.09;95.67;101204.53;5044998;28;20048;-74
2023/05/05 03:35:41;;;;;;;16.77;10.18;;;;;;;14.01;96.43;101202.75;5043909;28;20120;-74
2023/05/05 03:38:09;;;;;;;14.45;10.35;;;;;;;13.98;96.85;101214.34;5028609;28;20438;-74
2023/05/05 03:40:36;;;;;;;18.33;11.88;;;;;;;14.01;96.97;101211.41;5013216;28;20611;-74
2023/05/05 03:43:01;;;;;;;17.60;11.52;;;;;;;13.93;97.21;101216.66;5025736;28;20064;-74
2023/05/05 03:45:27;;;;;;;15.82;10.48;;;;;;;13.92;97.72;101225.47;5045975;28;20344;-74
2023/05/05 03:47:53;;;;;;;19.63;11.60;;;;;;;13.88;97.98;101218.97;5043416;28;20037;-74
2023/05/05 03:50:19;;;;;;;15.32;11.48;;;;;;;13.86;98.11;101228.72;5025695;28;20036;-74
2023/05/05 03:52:45;;;;;;;18.48;11.15;;;;;;;13.83;98.25;101223.84;5011260;28;20032;-74
2023/05/05 03:55:10;;;;;;;18.77;11.32;;;;;;;13.78;98.37;101232.16;5031535;28;20045;-74
2023/05/05 03:57:36;;;;;;;17.17;11.57;;;;;;;13.71;98.81;101238.19;5029957;28;20025;-74
2023/05/05 04:00:01;;;;;;;15.43;10.40;;;;;;;13.65;99.09;101237.06;5041887;28;20492;-74
2023/05/05 04:02:28;;;;;;;21.15;11.10;;;;;;;13.63;99.26;101247.66;5028110;28;20025;-74
2023/05/05 04:04:54;;;;;;;17.90;11.35;;;;;;;13.61;99.21;101254.03;5026479;28;20050;-74
2023/05/05 04:07:22;;;;;;;19.92;11.43;;;;;;;13.59;99.25;101251.56;5023668;28;20634;-74
2023/05/05 04:09:47;;;;;;;16.65;11.25;;;;;;;13.59;99.19;101264.59;5028072;28;20128;-74
2023/05/05 04:12:13;;;;;;;18.23;11.95;;;;;;;13.58;99.09;101260.38;5042265;28;20127;-74
2023/05/05 04:14:39;;;;;;;19.27;11.52;;;;;;;13.56;99.44;101254.53;5042419;28;20039;-74
2023/05/05 04:17:05;;;;;;;17.92;11.98;;;;;;;13.55;99.53;101257.28;5024509;23;20081;-70
2023/05/05 04:19:32;;;;;;;19.38;11.38;;;;;;;13.52;99.36;101255.00;4990545;28;20535;-70
2023/05/05 04:21:59;;;;;;;18.33;11.80;;;;;;;13.48;99.81;101259.72;4977814;28;20049;-70
2023/05/05 04:24:25;;;;;;;16.55;11.48;;;;;;;13.47;99.68;101255.50;5004303;28;20048;-70
2023/05/05 04:26:52;;;;;;;17.30;11.48;;;;;;;13.46;99.70;101266.09;5008316;28;20094;-70
2023/05/05 04:29:19;;;;;;;21.92;13.57;;;;;;;13.44;99.43;101264.44;5006254;28;20111;-70
2023/05/05 04:31:44;;;;;;;19.38;12.40;;;;;;;13.43;99.53;101268.03;4989787;28;20029;-70
2023/05/05 04:34:10;;;;;;;20.42;12.98;;;;;;;13.42;99.56;101276.81;5006383;28;20045;-70
2023/05/05 04:36:37;;;;;;;18.48;11.70;;;;;;;13.39;100.00;101278.94;5004232;28;20052;-70
2023/05/05 04:39:03;;;;;;;22.10;12.90;;;;;;;13.37;100.00;101283.50;5007238;28;20042;-70
2023/05/05 04:41:29;;;;;;;24.58;13.07;;;;;;;13.32;100.00;101281.38;5002987;28;20046;-70
2023/05/05 04:43:55;;;;;;;20.00;12.25;;;;;;;13.32;100.00;101280.59;4989891;28;20090;-70
2023/05/05 04:46:21;;;;;;;20.25;12.20;;;;;;;13.30;100.00;101282.47;5006503;28;20631;-70
2023/05/05 04:48:50;;;;;;;17.65;10.50;;;;;;;13.28;100.00;101280.06;5006283;28;20496;-70
2023/05/05 04:51:15;;;;;;;19.92;12.30;;;;;;;13.29;100.00;101280.88;5007549;28;20057;-70
2023/05/05 04:53:41;;;;;;;16.75;12.18;;;;;;;13.30;100.00;101280.75;5006915;28;20046;-70
2023/05/05 04:56:06;;;;;;;18.02;12.10;;;;;;;13.32;100.00;101283.19;5010938;28;20045;-70
2023/05/05 04:58:32;;;;;;;17.60;10.95;;;;;;;13.33;99.94;101285.59;4998930;23;20072;-69
2023/05/05 05:00:58;;;;;;;18.80;11.85;;;;;;;13.34;99.91;101286.44;5003756;28;20038;-69
2023/05/05 05:03:23;;;;;;;19.80;12.10;;;;;;;13.36;99.85;101290.50;5006101;28;20037;-69
2023/05/05 05:05:49;;;;;;;17.75;11.57;;;;;;;13.37;99.99;101286.94;5007418;28;20034;-69
2023/05/05 05:08:15;;;;;;;22.80;11.95;;;;;;;13.37;100.00;101289.53;5005399;28;20050;-69
2023/05/05 05:10:41;;;;;;;28.20;13.85;;;;;;;13.39;100.00;101284.16;4989124;28;20041;-69
2023/05/05 05:13:06;;;;;;;18.40;11.88;;;;;;;13.42;100.00;101291.63;5004835;28;20046;-69
2023/05/05 05:15:32;;;;;;;16.50;11.57;;;;;;;13.45;100.00;101293.94;4988410;28;20380;-69
2023/05/05 05:17:57;;;;;;;22.17;12.30;;;;;;;13.49;100.00;101297.03;5005110;28;20033;-70
2023/05/05 05:20:23;;;;;;;18.50;11.43;;;;;;;13.53;100.00;101291.31;5006687;28;20029;-69
2023/05/05 05:22:49;;;;;;;18.35;11.75;;;;;;;13.58;100.00;101299.47;4987927;28;20037;-70
2023/05/05 05:25:17;;;;;;;20.27;11.30;;;;;;;13.63;100.00;101306.78;5010061;28;20030;-69
2023/05/05 05:27:43;;;;;;;19.15;12.23;;;;;;;13.65;100.00;101310.03;5005350;28;20444;-69
2023/05/05 05:30:10;;;;;;;18.35;12.07;;;;;;;13.70;100.00;101297.34;4985483;28;20046;-69
2023/05/05 05:32:36;;;;;;;16.10;11.40;;;;;;;13.74;100.00;101303.03;5003825;28;20084;-69
2023/05/05 05:35:05;;;;;;;16.75;12.10;;;;;;;13.77;100.00;101302.72;4987333;28;20061;-69
2023/05/05 05:37:32;;;;;;;19.13;11.50;;;;;;;13.82;100.00;101306.47;4990315;28;20040;-69
2023/05/05 05:39:58;;;;;;;17.85;10.82;;;;;;;13.88;99.78;101311.97;4986750;28;20034;-69
2023/05/05 05:42:25;;;;;;;19.25;11.95;;;;;;;13.93;99.62;101310.50;5004584;28;20076;-69
2023/05/05 05:44:51;;;;;;;19.35;11.95;;;;;;;14.00;99.54;101314.06;5005027;28;20045;-69
2023/05/05 05:47:17;;;;;;;19.17;13.02;;;;;;;14.07;99.70;101319.44;4991700;28;20030;-69
2023/05/05 05:49:46;;;;;;;20.70;13.60;;;;;;;14.18;99.79;101320.88;5008160;28;20419;-69
2023/05/05 05:52:11;;;;;;;23.63;13.65;;;;;;;14.31;99.27;101315.13;4988373;28;20034;-69
2023/05/05 05:54:38;;;;;;;23.35;13.77;;;;;;;14.49;98.64;101312.31;4988834;28;20041;-69
2023/05/05 05:57:03;;;;;;;20.95;13.52;;;;;;;14.66;97.95;101313.09;5005666;28;20034;-69
2023/05/05 05:59:29;;;;;;;20.45;13.07;;;;;;;14.87;96.77;101308.06;5003822;28;20040;-69
2023/05/05 06:01:55;;;;;;;20.02;12.93;;;;;;;15.08;95.38;101317.91;4974367;28;20025;-69
2023/05/05 06:04:21;;;;;;;25.58;15.40;;;;;;;15.21;93.96;101314.72;4989509;28;20073;-70
2023/05/05 06:06:47;;;;;;;20.65;12.95;;;;;;;15.30;93.48;101310.25;5007331;28;20041;-69
2023/05/05 06:09:13;;;;;;;21.05;13.50;;;;;;;15.47;93.10;101306.53;5005953;28;20042;-69
2023/05/05 06:11:39;;;;;;;25.20;13.88;;;;;;;15.82;91.29;101308.69;4985601;28;20516;-69
2023/05/05 06:14:04;;;;;;;19.38;13.10;;;;;;;16.14;89.58;101308.38;5006143;28;20050;-69
2023/05/05 06:16:30;;;;;;;17.98;11.80;;;;;;;16.49;87.96;101300.78;5006519;28;20488;-69
2023/05/05 06:18:58;;;;;;;19.67;12.55;;;;;;;16.73;85.67;101304.06;4986198;28;20128;-69
2023/05/05 06:21:23;;;;;;;18.70;12.43;;;;;;;16.71;84.80;101304.25;5011498;28;20242;-69
2023/05/05 06:23:50;;;;;;;17.20;11.07;;;;;;;16.85;84.33;101305.22;4987107;28;20547;-69
2023/05/05 06:26:16;;;;;;;14.38;10.30;;;;;;;17.08;83.73;101306.88;4991587;28;20041;-69
2023/05/05 06:28:41;;;;;;;17.30;10.70;;;;;;;17.23;83.10;101310.25;5007762;28;20034;-69
2023/05/05 06:31:07;;;;;;;20.38;12.55;;;;;;;17.39;80.53;101318.88;5003195;28;20033;-69
2023/05/05 06:33:32;;;;;;;24.00;12.63;;;;;;;17.41;79.05;101322.13;5004086;28;20571;-69
2023/05/05 06:35:58;;;;;;;23.60;12.15;;;;;;;17.58;77.75;101318.22;5007077;28;20080;-69
2023/05/05 06:38:23;;;;;;;18.17;12.05;;;;;;;17.59;78.78;101322.44;5004649;28;20053;-69
2023/05/05 06:40:49;;;;;;;19.83;12.43;;;;;;;17.60;77.35;101325.91;4984425;28;20033;-69
2023/05/05 06:43:15;;;;;;;15.20;11.23;;;;;;;17.80;76.83;101328.66;4985824;28;20739;-69
2023/05/05 06:45:45;;;;;;;20.30;12.15;;;;;;;17.90;76.94;101335.22;5004246;28;20095;-69
2023/05/05 06:48:11;;;;;;;23.80;15.38;;;;;;;17.89;76.48;101336.25;4987387;28;20046;-69
2023/05/05 06:50:36;;;;;;;21.65;13.60;;;;;;;17.89;77.31;101348.53;5004974;28;20036;-69
2023/05/05 06:53:05;;;;;;;18.08;11.90;;;;;;;17.92;78.27;101342.13;4982971;28;20038;-69
2023/05/05 06:55:30;;;;;;;19.65;12.70;;;;;;;17.93;78.28;101341.91;4985626;28;20169;-69
2023/05/05 06:57:56;;;;;;;19.92;12.63;;;;;;;17.84;77.10;101345.66;5003271;28;20117;-69
2023/05/05 07:00:22;;;;;;;23.58;12.45;;;;;;;17.88;77.31;101346.94;4997552;28;20077;-69
2023/05/05 07:02:47;;;;;;;23.20;11.30;;;;;;;18.03;76.00;101347.63;5002245;28;20041;-70
2023/05/05 07:05:13;;;;;;;20.38;9.73;;;;;;;18.12;75.53;101347.47;5002477;28;20037;-69
2023/05/05 07:07:50;;;;;;;14.63;9.18;;;;;;;18.45;74.43;101340.59;5004579;28;20064;-69
2023/05/05 07:10:16;;;;;;;13.50;8.35;;;;;;;18.44;73.13;101346.84;4989585;28;20045;-69
2023/05/05 07:12:41;;;;;;;13.05;8.00;;;;;;;18.73;71.63;101350.19;5003393;28;20030;-69
2023/05/05 07:15:07;;;;;;;12.38;8.52;;;;;;;18.98;70.01;101341.81;5005033;28;20053;-69
2023/05/05 07:17:32;;;;;;;14.60;8.40;;;;;;;19.28;69.28;101344.09;5003435;28;20036;-69
2023/05/05 07:19:58;;;;;;;14.45;8.05;;;;;;;19.60;68.25;101339.88;5002428;28;20046;-69
2023/05/05 07:22:23;;;;;;;10.55;7.20;;;;;;;19.89;67.78;101349.22;4986659;28;20482;-69
2023/05/05 07:24:52;;;;;;;16.52;10.25;;;;;;;20.13;67.20;101347.72;5002645;28;20076;-69
2023/05/05 07:27:18;;;;;;;12.85;7.53;;;;;;;20.30;66.45;101348.09;5004373;28;20048;-69
2023/05/05 07:29:44;;;;;;;15.00;8.60;;;;;;;20.36;66.30;101349.09;5002637;28;21019;-69
2023/05/05 07:32:09;;;;;;;17.35;9.48;;;;;;;20.27;65.81;101348.53;5003836;28;20062;-69
2023/05/05 07:34:36;;;;;;;11.93;8.70;;;;;;;20.50;65.37;101347.22;5000947;28;20049;-69
2023/05/05 07:37:04;;;;;;;11.60;7.78;;;;;;;20.90;64.67;101352.34;5003957;28;20030;-69
2023/05/05 07:39:30;;;;;;;12.65;7.32;;;;;;;21.08;63.68;101347.16;5000881;28;20115;-69
2023/05/05 07:41:55;;;;;;;12.73;6.65;;;;;;;21.21;63.53;101359.47;5003912;28;20038;-69
2023/05/05 07:44:21;;;;;;;11.32;6.63;;;;;;;21.27;61.68;101365.72;5004299;28;20044;-69
2023/05/05 07:46:46;;;;;;;10.82;6.30;;;;;;;21.29;61.54;101353.13;4988902;28;20033;-69
2023/05/05 07:49:12;;;;;;;11.95;6.18;;;;;;;21.19;61.04;101354.41;5003262;28;20045;-69
2023/05/05 07:51:37;;;;;;;8.48;5.75;;;;;;;21.29;61.87;101363.66;5002809;28;20100;-69
2023/05/05 07:54:03;;;;;;;15.05;7.43;;;;;;;21.10;62.85;101370.69;5001975;28;20124;-69
2023/05/05 07:56:32;;;;;;;14.60;5.70;;;;;;;21.40;61.07;101365.63;5005767;28;20459;-69
2023/05/05 07:58:57;;;;;;;14.10;6.10;;;;;;;21.45;61.93;101365.78;4986149;28;20179;-69
2023/05/05 08:01:23;;;;;;;7.32;5.18;;;;;;;21.93;61.26;101359.13;5002415;28;20413;-69
2023/05/05 08:03:48;;;;;;;13.60;5.90;;;;;;;22.02;58.20;101352.53;5000144;28;20053;-69
2023/05/05 08:06:15;;;;;;;9.02;4.57;;;;;;;22.28;58.07;101353.28;4985659;28;20030;-69
2023/05/05 08:08:41;;;;;;;10.10;5.15;;;;;;;22.41;58.45;101354.97;4999964;28;20042;-69
2023/05/05 08:11:06;;;;;;;13.70;6.00;;;;;;;22.44;58.00;101357.97;4983889;28;20049;-69
2023/05/05 08:13:32;;;;;;;9.95;5.85;;;;;;;22.73;56.25;101353.78;5000288;28;20112;-70
2023/05/05 08:15:58;;;;;;;13.38;6.03;;;;;;;22.52;57.43;101351.59;5001666;28;20044;-69
2023/05/05 08:18:24;;;;;;;10.65;5.70;;;;;;;22.02;58.17;101349.88;4990279;28;20050;-69
2023/05/05 08:20:49;;;;;;;11.45;5.03;;;;;;;21.92;57.71;101353.00;5005603;28;20068;-69
2023/05/05 08:23:15;;;;;;;13.15;5.85;;;;;;;22.16;58.20;101348.69;4989000;28;20069;-69
2023/05/05 08:25:43;;;;;;;7.40;5.15;;;;;;;22.62;56.37;101348.41;5007066;28;20037;-69
2023/05/05 08:28:08;;;;;;;8.10;5.07;;;;;;;23.26;55.83;101346.13;4986049;28;20042;-70
2023/05/05 08:30:34;;;;;;;11.40;6.03;;;;;;;23.76;54.61;101344.91;5004028;28;20032;-69
2023/05/05 08:33:00;;;;;;;9.57;6.00;;;;;;;23.98;52.94;101337.19;5005968;28;20188;-70
2023/05/05 08:35:25;;;;;;;10.30;5.68;;;;;;;24.32;51.14;101340.00;5007684;28;20049;-69
2023/05/05 08:37:51;;;;;;;9.30;5.25;;;;;;;24.47;51.05;101340.31;5005515;28;20096;-70
2023/05/05 08:40:16;;;;;;;12.65;5.85;;;;;;;24.33;52.58;101334.47;4989631;28;20158;-69
2023/05/05 08:42:44;;;;;;;10.77;6.30;;;;;;;24.51;50.29;101340.66;5000638;28;20041;-69
2023/05/05 08:45:10;;;;;;;10.18;5.82;;;;;;;24.66;51.02;101344.41;4985527;28;20057;-70
2023/05/05 08:47:36;;;;;;;10.75;5.97;;;;;;;24.57;49.89;101345.03;5006943;28;20033;-70
2023/05/05 08:50:04;;;;;;;10.98;6.68;;;;;;;24.10;51.24;101346.72;4988860;28;20045;-70
2023/05/05 08:52:38;;;;;;;17.48;6.57;;;;;;;23.83;53.11;101349.06;5008708;28;20068;-69
2023/05/05 08:55:49;;;;;;;11.95;6.97;;;;;;;23.83;52.93;101346.44;5005363;28;20068;-69
2023/05/05 08:58:18;;;;;;;7.88;5.55;;;;;;;23.66;54.15;101341.00;4908032;29;20134;-70
2023/05/05 09:00:45;;;;;;;13.25;6.85;;;;;;;23.69;51.90;101348.44;4980122;28;20096;-70
2023/05/05 09:03:11;;;;;;;9.73;5.30;;;;;;;23.70;51.58;101349.28;5004178;28;20484;-69
2023/05/05 09:05:37;;;;;;;8.00;4.60;;;;;;;23.85;50.76;101347.00;5004711;28;20030;-70
2023/05/05 09:08:08;;;;;;;8.18;4.78;;;;;;;24.17;50.59;101343.97;5004862;28;20436;-70
2023/05/05 09:10:35;;;;;;;15.10;6.20;;;;;;;24.11;50.52;101344.91;5004199;28;20042;-70
2023/05/05 09:13:03;;;;;;;8.63;5.93;;;;;;;24.39;50.77;101357.41;5008179;28;20401;-70
2023/05/05 09:15:29;;;;;;;13.13;6.60;;;;;;;24.11;50.55;101352.84;5009676;28;20507;-70
2023/05/05 09:17:59;;;;;;;10.88;5.45;;;;;;;24.09;50.64;101349.59;5008537;28;20041;-70
2023/05/05 09:20:38;;;;;;;12.80;7.05;;;;;;;24.04;51.10;101347.66;4992473;28;20083;-70
2023/05/05 09:23:09;;;;;;;11.77;6.20;;;;;;;23.99;51.44;101344.09;5003130;28;20034;-70
2023/05/05 09:25:35;;;;;;;11.25;5.97;;;;;;;24.22;51.24;101352.03;5008918;28;20041;-70
2023/05/05 09:28:09;;;;;;;10.13;6.20;;;;;;;24.31;49.74;101349.81;4986404;28;20033;-70
2023/05/05 09:30:35;;;;;;;12.07;6.40;;;;;;;24.19;49.79;101347.19;5002126;28;20034;-70
2023/05/05 09:33:01;;;;;;;12.18;7.15;;;;;;;23.71;49.85;101342.94;4986291;28;20550;-70
2023/05/05 09:35:27;;;;;;;8.98;5.35;;;;;;;23.65;49.37;101344.66;5003990;28;20264;-70
2023/05/05 09:37:53;;;;;;;13.27;6.25;;;;;;;23.76;49.88;101347.56;5001811;28;20029;-70
2023/05/05 09:40:20;;;;;;;10.82;6.18;;;;;;;23.91;50.96;101345.28;5001257;28;20037;-70
2023/05/05 09:42:46;;;;;;;9.57;6.22;;;;;;;24.20;50.50;101355.94;4998712;28;20464;-70
2023/05/05 09:45:17;;;;;;;9.52;3.28;;;;;;;24.21;49.92;101349.59;5004389;28;20034;-68
2023/05/05 09:47:44;;;;;;;7.90;5.13;;;;;;;23.83;48.43;101348.28;5004906;28;20464;-68
2023/05/05 09:50:14;;;;;;;7.97;4.28;;;;;;;22.93;52.52;101336.81;5005278;28;20408;-68
2023/05/05 09:53:01;;;;;;;9.82;4.50;;;;;;;22.96;53.03;101348.78;5006354;28;20042;-68
2023/05/05 09:55:27;;;;;;;7.65;4.60;;;;;;;22.69;52.70;101343.84;4986621;28;20212;-68
2023/05/05 09:57:53;;;;;;;7.53;3.45;;;;;;;22.76;53.30;101341.94;5001223;28;20064;-68
2023/05/05 10:00:19;;;;;;;7.80;4.22;;;;;;;22.64;52.70;101343.69;4985026;28;20026;-68
2023/05/05 10:02:44;;;;;;;7.20;3.78;;;;;;;22.64;53.87;101339.25;5002305;28;20374;-68
2023/05/05 10:05:15;;;;;;;6.97;4.00;;;;;;;22.62;54.79;101338.66;5003880;28;20042;-67
2023/05/05 10:07:45;;;;;;;14.98;4.28;;;;;;;22.65;52.43;101337.41;4989918;28;20727;-68
2023/05/05 10:10:15;;;;;;;6.97;3.30;;;;;;;22.79;51.79;101338.03;5003498;28;20052;-69
2023/05/05 10:12:41;;;;;;;9.10;3.22;;;;;;;23.32;50.54;101324.88;5000448;28;20033;-70
2023/05/05 10:15:10;;;;;;;8.10;2.90;;;;;;;23.41;48.86;101322.66;4985810;28;20163;-69
2023/05/05 10:17:44;;;;;;;4.28;2.30;;;;;;;23.91;49.50;101324.09;4987748;28;20091;-70
2023/05/05 10:20:12;;;;;;;4.60;3.10;;;;;;;23.89;49.53;101321.66;5003738;28;20038;-70
2023/05/05 10:22:38;;;;;;;7.40;4.22;;;;;;;23.67;50.26;101317.97;5004556;28;20439;-69
2023/05/05 10:25:13;;;;;;;5.53;3.80;;;;;;;23.24;49.41;101313.81;4984301;28;20424;-70
2023/05/05 10:27:54;;;;;;;10.10;3.88;;;;;;;23.15;50.43;101310.69;5002468;28;20037;-69
2023/05/05 10:30:23;;;;;;;5.40;3.10;;;;;;;23.14;51.07;101311.72;5004116;28;20068;-70
2023/05/05 10:33:02;;;;;;;11.23;3.50;;;;;;;23.04;51.73;101306.19;5002673;28;20395;-70
2023/05/05 10:35:31;;;;;;;8.05;4.20;;;;;;;22.96;51.00;101309.91;5004867;28;20061;-70
2023/05/05 10:37:59;;;;;;;5.18;3.60;;;;;;;22.92;51.92;101311.41;4986317;28;20052;-70
2023/05/05 10:40:25;;;;;;;5.20;2.65;;;;;;;22.85;51.47;101308.88;5004099;28;20075;-70
2023/05/05 10:42:53;;;;;;;5.18;3.00;;;;;;;22.83;50.84;101316.22;4999697;28;20025;-70
2023/05/05 10:45:18;;;;;;;4.32;2.25;;;;;;;22.69;51.50;101318.22;5007111;28;20504;-70
2023/05/05 10:47:44;;;;;;;7.07;2.90;;;;;;;22.69;51.49;101312.94;4999868;28;20090;-70
2023/05/05 10:50:47;;;;;;;6.18;2.95;;;;;;;22.60;52.15;101306.34;4986293;28;20045;-69
2023/05/05 10:53:19;;;;;;;4.95;3.53;;;;;;;22.65;52.96;101309.13;4970870;28;20128;-70
2023/05/05 10:56:09;;;;;;;9.18;3.70;;;;;;;22.52;53.24;101306.66;5002775;28;20484;-70
2023/05/05 10:58:37;;;;;;;5.80;3.53;;;;;;;22.22;54.18;101301.31;4998871;23;20160;-69
2023/05/05 11:01:04;;;;;;;7.55;4.20;;;;;;;22.32;53.36;101305.09;4988880;28;20045;-69
2023/05/05 11:03:29;;;;;;;6.82;4.50;;;;;;;22.29;54.13;101300.25;4978925;28;20072;-69
2023/05/05 11:06:07;;;;;;;8.93;4.00;;;;;;;22.37;55.05;101300.97;4996385;28;20035;-69
2023/05/05 11:08:37;;;;;;;7.07;3.80;;;;;;;22.32;54.32;101297.16;4980632;28;20040;-69
2023/05/05 11:11:03;;;;;;;11.60;4.70;;;;;;;22.24;54.23;101301.91;4975347;28;21175;-69
2023/05/05 11:13:29;;;;;;;7.35;4.22;;;;;;;22.31;54.11;101298.19;4977370;28;20058;-69
2023/05/05 11:15:55;;;;;;;5.72;2.83;;;;;;;22.21;55.05;101303.16;4979189;28;20026;-69
2023/05/05 11:18:30;;;;;;;4.22;1.95;;;;;;;21.96;53.94;101301.41;4981564;28;20104;-69
2023/05/05 11:20:58;;;;;;;3.17;1.75;;;;;;;21.91;53.75;101305.72;4997076;28;20042;-69
2023/05/05 11:23:27;;;;;;;2.20;1.25;;;;;;;21.93;54.34;101301.03;4959336;28;20415;-69